Time;durP1;ratioP1;P1;durP2;ratioP2;P2;SDS_P1;SDS_P2;PMS_P1;PMS_P2;Temp;Humidity;BMP_temperature;BMP_pressure;BME280_temperature;BME280_humidity;BME280_pressure;Samples;Min_cycle;Max_cycle;Signal;HPM_P1;HPM_P2
2021/12/17 00:00:46;;;;;;;21.10;7.63;;;6.20;99.90;;;;;;5011384;28;20105;-49
2021/12/17 00:03:19;;;;;;;21.80;8.50;;;6.20;99.90;;;;;;5009647;28;20030;-48
2021/12/17 00:08:19;;;;;;;19.35;7.40;;;6.20;99.90;;;;;;5011144;28;20116;-48
2021/12/17 00:10:45;;;;;;;18.70;7.55;;;6.20;99.90;;;;;;5010950;28;20025;-46
2021/12/17 00:13:11;;;;;;;18.65;6.93;;;6.20;99.90;;;;;;5010724;28;20355;-46
2021/12/17 00:15:38;;;;;;;24.23;8.32;;;6.20;99.90;;;;;;5010949;28;20021;-48
2021/12/17 00:18:13;;;;;;;20.58;7.65;;;6.20;99.90;;;;;;5006109;28;20057;-45
2021/12/17 00:53:32;;;;;;;20.08;7.32;;;6.10;99.90;;;;;;5010584;28;20045;-49
2021/12/17 00:55:58;;;;;;;23.52;7.10;;;6.10;99.90;;;;;;5010699;28;20389;-47
2021/12/17 00:58:23;;;;;;;18.98;6.70;;;6.10;99.90;;;;;;5010650;28;20022;-45
2021/12/17 01:00:49;;;;;;;16.60;6.47;;;6.10;99.90;;;;;;5010583;28;20037;-44
2021/12/17 01:03:15;;;;;;;19.05;7.28;;;6.10;99.90;;;;;;5009140;28;20108;-47
2021/12/17 01:05:41;;;;;;;15.93;7.30;;;6.10;99.90;;;;;;5010316;28;20026;-48
2021/12/17 01:08:07;;;;;;;12.60;6.45;;;6.10;99.90;;;;;;5010612;28;20076;-48
2021/12/17 01:10:37;;;;;;;24.63;7.15;;;6.10;99.90;;;;;;5010465;28;20026;-47
2021/12/17 01:13:06;;;;;;;24.35;6.85;;;6.00;99.90;;;;;;5010764;28;20029;-48
2021/12/17 01:15:32;;;;;;;18.33;5.45;;;6.10;99.90;;;;;;5010279;28;20026;-48
2021/12/17 01:18:03;;;;;;;16.48;6.22;;;6.10;99.90;;;;;;5005530;28;20030;-46
2021/12/17 01:20:53;;;;;;;11.70;5.22;;;6.10;99.90;;;;;;5010308;28;20132;-46
2021/12/17 01:23:49;;;;;;;25.20;7.28;;;6.10;99.90;;;;;;5009687;28;20037;-45
2021/12/17 01:37:02;;;;;;;20.38;6.00;;;6.00;99.90;;;;;;5014179;28;19920;-47
2021/12/17 01:40:36;;;;;;;19.60;7.10;;;6.00;99.90;;;;;;5013924;28;20100;-48
2021/12/17 01:42:19;;;;;;;20.00;7.43;;;6.00;99.90;;;;;;5013427;28;20079;-45
2021/12/17 01:44:44;;;;;;;19.00;6.93;;;5.90;99.90;;;;;;5013650;28;20061;-45
2021/12/17 01:47:12;;;;;;;21.38;6.65;;;6.00;99.90;;;;;;5012582;28;20030;-48
2021/12/17 02:00:36;;;;;;;17.20;5.95;;;5.80;99.90;;;;;;5015278;28;20076;-47
2021/12/17 02:03:03;;;;;;;24.55;7.72;;;5.70;99.90;;;;;;5013840;28;20030;-47
2021/12/17 02:05:29;;;;;;;12.15;5.32;;;5.70;99.90;;;;;;5015151;28;20024;-48
2021/12/17 02:07:57;;;;;;;18.58;6.10;;;5.70;99.90;;;;;;5015127;28;20026;-47
2021/12/17 02:19:31;;;;;;;18.40;5.60;;;5.60;99.90;;;;;;5014893;28;20068;-47
2021/12/17 02:32:04;;;;;;;20.20;5.40;;;5.40;99.90;;;;;;5013296;28;20032;-45
2021/12/17 02:37:18;;;;;;;17.35;4.90;;;5.50;99.90;;;;;;5014397;28;20125;-43
2021/12/17 02:40:17;;;;;;;17.27;5.18;;;5.50;99.90;;;;;;5014291;28;20108;-47
2021/12/17 02:45:34;;;;;;;14.38;4.85;;;5.50;99.90;;;;;;5014363;28;20026;-45
2021/12/17 02:48:04;;;;;;;22.77;7.53;;;5.50;99.90;;;;;;5012782;28;20129;-43
2021/12/17 02:50:30;;;;;;;19.98;5.07;;;5.50;99.90;;;;;;5014205;28;20049;-45
2021/12/17 02:52:58;;;;;;;18.58;5.25;;;5.60;99.90;;;;;;5014251;28;20025;-47
2021/12/17 02:55:27;;;;;;;19.60;4.63;;;5.50;99.90;;;;;;5014196;28;20026;-48
2021/12/17 02:57:53;;;;;;;14.90;4.18;;;5.60;99.90;;;;;;5014096;28;20017;-44
2021/12/17 03:00:18;;;;;;;18.33;5.05;;;5.60;99.90;;;;;;5014244;28;20032;-46
2021/12/17 03:02:46;;;;;;;18.73;6.22;;;5.60;99.90;;;;;;5012193;28;20026;-44
2021/12/17 03:05:12;;;;;;;14.88;4.40;;;5.70;99.90;;;;;;5014021;28;20024;-48
2021/12/17 03:07:42;;;;;;;21.33;4.80;;;5.70;99.90;;;;;;5013759;28;20109;-46
2021/12/17 03:10:10;;;;;;;16.65;5.28;;;5.70;99.90;;;;;;5014078;28;20026;-47
2021/12/17 03:12:48;;;;;;;13.43;4.93;;;5.70;99.90;;;;;;5013775;28;20080;-47
2021/12/17 03:15:37;;;;;;;11.95;4.28;;;5.80;99.90;;;;;;5013836;28;20022;-49
2021/12/17 03:25:56;;;;;;;15.48;5.43;;;5.80;99.90;;;;;;5014024;28;20025;-49
2021/12/17 03:28:22;;;;;;;16.77;4.75;;;5.80;99.90;;;;;;5013674;28;20033;-47
2021/12/17 03:30:48;;;;;;;15.77;4.82;;;5.90;99.90;;;;;;5013793;28;20026;-45
2021/12/17 03:33:14;;;;;;;16.98;4.40;;;5.90;99.90;;;;;;5012119;28;20041;-45
2021/12/17 03:35:40;;;;;;;20.05;4.40;;;5.90;99.90;;;;;;5013604;28;20105;-45
2021/12/17 03:38:06;;;;;;;19.23;4.45;;;5.90;99.90;;;;;;5013275;28;20022;-44
2021/12/17 03:40:33;;;;;;;19.58;4.55;;;5.90;99.90;;;;;;4995658;28;20022;-44
2021/12/17 03:43:05;;;;;;;23.60;4.57;;;5.90;99.90;;;;;;5013363;28;20432;-45
2021/12/17 03:45:31;;;;;;;15.60;4.18;;;5.90;99.90;;;;;;4993756;28;20477;-43
2021/12/17 03:47:56;;;;;;;29.00;5.72;;;6.00;99.90;;;;;;4991756;28;20031;-46
2021/12/17 03:50:23;;;;;;;13.35;5.07;;;5.90;99.90;;;;;;4993646;28;20050;-50
2021/12/17 03:52:49;;;;;;;16.73;4.50;;;5.90;99.90;;;;;;4993352;28;20027;-45
2021/12/17 03:55:15;;;;;;;15.45;4.85;;;5.90;99.90;;;;;;4993762;28;20027;-45
2021/12/17 03:57:41;;;;;;;14.20;4.78;;;5.90;99.90;;;;;;4993425;28;20030;-50
2021/12/17 04:00:09;;;;;;;13.85;4.65;;;5.90;99.90;;;;;;4993635;28;20329;-48
2021/12/17 04:02:35;;;;;;;14.68;5.00;;;5.90;99.90;;;;;;4995230;28;20026;-51
2021/12/17 04:05:01;;;;;;;14.80;4.65;;;5.90;99.90;;;;;;5013003;28;20049;-46
2021/12/17 04:07:26;;;;;;;13.77;4.65;;;5.90;99.90;;;;;;5012757;28;20076;-50
2021/12/17 04:09:52;;;;;;;17.52;4.65;;;5.90;99.90;;;;;;5013041;28;20030;-48
2021/12/17 04:12:20;;;;;;;15.80;4.70;;;5.90;99.90;;;;;;5012841;28;20064;-43
2021/12/17 04:14:48;;;;;;;17.90;5.18;;;5.90;99.90;;;;;;5012813;28;20030;-45
2021/12/17 04:17:22;;;;;;;19.40;4.63;;;5.90;99.90;;;;;;5011663;28;20029;-44
2021/12/17 04:19:47;;;;;;;13.25;4.95;;;5.90;99.90;;;;;;5012755;28;20061;-46
2021/12/17 04:22:13;;;;;;;19.20;5.35;;;5.90;99.90;;;;;;5012813;28;20064;-44
2021/12/17 04:24:38;;;;;;;17.33;5.25;;;5.90;99.90;;;;;;5012644;28;20456;-45
2021/12/17 04:27:06;;;;;;;10.70;4.25;;;5.80;99.90;;;;;;5012742;28;20029;-46
2021/12/17 04:29:32;;;;;;;17.90;5.18;;;5.90;99.90;;;;;;5012672;28;20017;-45
2021/12/17 04:31:58;;;;;;;19.48;5.32;;;5.90;99.90;;;;;;5011394;28;20587;-44
2021/12/17 04:34:25;;;;;;;19.83;4.95;;;5.90;99.90;;;;;;5012369;28;20058;-47
2021/12/17 04:36:52;;;;;;;23.02;6.13;;;5.80;99.90;;;;;;5012584;28;20030;-52
2021/12/17 04:39:20;;;;;;;14.80;5.35;;;5.80;99.90;;;;;;5012638;28;20022;-45
2021/12/17 04:42:00;;;;;;;19.02;4.88;;;5.80;99.90;;;;;;5012827;28;20029;-46
2021/12/17 04:44:33;;;;;;;22.80;5.03;;;5.80;99.90;;;;;;5012423;28;20030;-46
2021/12/17 04:57:53;;;;;;;17.65;5.13;;;5.70;99.90;;;;;;5012453;28;20037;-45
2021/12/17 05:00:22;;;;;;;18.13;4.82;;;5.70;99.90;;;;;;5013880;28;20370;-46
2021/12/17 05:02:52;;;;;;;18.30;6.90;;;5.70;99.90;;;;;;5014603;28;20037;-48
2021/12/17 05:05:20;;;;;;;17.40;5.68;;;5.60;99.90;;;;;;5016028;28;20026;-48
2021/12/17 05:07:52;;;;;;;14.38;5.15;;;5.60;99.90;;;;;;5015839;28;20029;-48
2021/12/17 05:20:51;;;;;;;16.77;4.57;;;5.50;99.90;;;;;;5015852;28;20026;-46
2021/12/17 05:23:24;;;;;;;16.50;4.63;;;5.50;99.90;;;;;;5015702;28;20104;-48
2021/12/17 05:25:51;;;;;;;22.75;5.65;;;5.50;99.90;;;;;;5015666;28;20362;-45
2021/12/17 05:28:16;;;;;;;20.77;5.22;;;5.50;99.90;;;;;;5015868;28;20104;-50
2021/12/17 05:30:47;;;;;;;13.65;4.55;;;5.50;99.90;;;;;;4994421;28;20116;-47
2021/12/17 05:33:14;;;;;;;17.13;4.32;;;5.50;99.90;;;;;;5013658;28;20024;-46
2021/12/17 05:35:39;;;;;;;25.52;7.05;;;5.50;99.90;;;;;;5015426;28;20026;-45
2021/12/17 05:38:05;;;;;;;19.25;4.28;;;5.50;99.90;;;;;;5014850;28;20026;-46
2021/12/17 05:40:30;;;;;;;17.95;4.25;;;5.50;99.90;;;;;;5015805;28;20112;-49
2021/12/17 05:42:59;;;;;;;15.88;4.85;;;5.50;99.90;;;;;;5015398;28;20393;-48
2021/12/17 05:48:05;;;;;;;17.77;5.10;;;5.50;99.90;;;;;;5011194;28;20089;-45
2021/12/17 05:50:31;;;;;;;14.50;4.13;;;5.50;99.90;;;;;;5015091;28;20042;-46
2021/12/17 05:52:57;;;;;;;12.55;3.92;;;5.60;99.90;;;;;;5015214;28;20106;-46
2021/12/17 05:55:23;;;;;;;19.80;4.38;;;5.60;99.90;;;;;;5015405;28;20101;-52
2021/12/17 05:57:48;;;;;;;13.75;4.25;;;5.60;99.90;;;;;;5014891;28;20076;-48
2021/12/17 06:00:15;;;;;;;8.98;3.67;;;5.70;99.90;;;;;;5015307;28;20026;-45
2021/12/17 06:02:40;;;;;;;14.23;4.00;;;5.70;99.90;;;;;;5013864;28;20025;-45
2021/12/17 06:05:06;;;;;;;18.85;3.65;;;5.70;99.90;;;;;;5014817;28;20025;-46
2021/12/17 06:07:32;;;;;;;14.07;3.97;;;5.70;99.90;;;;;;5015215;28;20464;-46
2021/12/17 06:10:00;;;;;;;13.85;4.60;;;5.70;99.90;;;;;;5014802;28;20041;-46
2021/12/17 06:12:25;;;;;;;11.20;3.60;;;5.70;99.90;;;;;;5014743;28;20030;-46
2021/12/17 06:14:51;;;;;;;13.40;4.43;;;5.70;99.90;;;;;;5014899;28;20035;-49
2021/12/17 06:17:16;;;;;;;16.73;4.50;;;5.70;99.90;;;;;;5013835;28;20469;-47
2021/12/17 06:19:42;;;;;;;16.27;4.60;;;5.70;99.90;;;;;;5014924;28;20109;-45
2021/12/17 06:22:08;;;;;;;21.85;4.68;;;5.70;99.90;;;;;;5014940;28;20431;-45
2021/12/17 06:24:33;;;;;;;11.32;4.07;;;5.70;99.90;;;;;;5014764;28;20056;-46
2021/12/17 06:26:59;;;;;;;17.60;4.55;;;5.70;99.90;;;;;;5014715;28;20481;-49
2021/12/17 06:29:24;;;;;;;10.50;4.40;;;5.70;99.90;;;;;;5014645;28;20030;-45
2021/12/17 06:31:50;;;;;;;15.05;4.38;;;5.60;99.90;;;;;;5013397;28;20093;-46
2021/12/17 06:34:15;;;;;;;13.68;4.30;;;5.60;99.90;;;;;;5014697;28;20030;-47
2021/12/17 06:36:41;;;;;;;13.45;4.03;;;5.60;99.90;;;;;;5014865;28;20369;-46
2021/12/17 06:39:06;;;;;;;16.67;4.30;;;5.60;99.90;;;;;;5014542;28;20053;-45
2021/12/17 06:41:32;;;;;;;19.13;4.55;;;5.60;99.90;;;;;;5014602;28;20034;-50
2021/12/17 06:43:59;;;;;;;21.25;5.22;;;5.70;99.90;;;;;;5014113;28;20026;-49
2021/12/17 06:46:34;;;;;;;22.13;5.57;;;5.60;99.90;;;;;;5014671;28;20044;-45
2021/12/17 06:49:22;;;;;;;16.98;5.00;;;5.60;99.90;;;;;;5013357;28;20022;-46
2021/12/17 06:55:37;;;;;;;17.70;5.60;;;5.60;99.90;;;;;;5014317;28;20167;-45
2021/12/17 07:00:32;;;;;;;19.90;5.88;;;5.60;99.90;;;;;;5014307;28;20036;-48
2021/12/17 07:11:14;;;;;;;13.05;4.30;;;5.50;99.90;;;;;;5014175;28;20397;-46
2021/12/17 07:21:59;;;;;;;18.77;4.13;;;5.50;99.90;;;;;;4976870;28;20038;-45
2021/12/17 07:31:38;;;;;;;16.80;3.80;;;5.60;99.90;;;;;;5013470;28;20143;-46
2021/12/17 07:40:30;;;;;;;12.95;4.55;;;5.60;99.90;;;;;;5013588;28;20037;-45
2021/12/17 07:42:55;;;;;;;17.95;4.47;;;5.70;99.90;;;;;;4995802;28;20026;-46
2021/12/17 07:45:21;;;;;;;14.27;4.60;;;5.70;99.90;;;;;;5013345;28;20022;-46
2021/12/17 07:47:46;;;;;;;17.75;4.75;;;5.70;99.90;;;;;;5012204;28;20029;-45
2021/12/17 07:50:12;;;;;;;16.17;3.85;;;5.70;99.90;;;;;;5013048;28;20046;-49
2021/12/17 07:52:37;;;;;;;20.20;5.40;;;5.80;99.90;;;;;;5013118;28;20033;-46
2021/12/17 07:55:03;;;;;;;16.70;5.07;;;5.80;99.90;;;;;;5013174;28;20017;-48
2021/12/17 07:57:29;;;;;;;11.35;4.55;;;5.80;99.90;;;;;;5013366;28;20485;-48
2021/12/17 07:59:54;;;;;;;17.00;4.63;;;5.80;99.90;;;;;;5013037;28;20033;-45
2021/12/17 08:02:20;;;;;;;9.93;3.78;;;5.80;99.90;;;;;;5011878;28;20018;-47
2021/12/17 08:04:45;;;;;;;13.60;4.13;;;5.80;99.90;;;;;;5013018;28;20052;-47
2021/12/17 08:07:11;;;;;;;14.68;4.45;;;5.90;99.90;;;;;;5012904;28;20037;-47
2021/12/17 08:09:39;;;;;;;13.70;4.13;;;5.90;99.90;;;;;;5012874;28;20026;-47
2021/12/17 08:12:05;;;;;;;17.38;4.78;;;5.90;99.90;;;;;;5012992;28;20029;-46
2021/12/17 08:14:31;;;;;;;13.48;3.28;;;5.90;99.90;;;;;;5013187;28;20018;-48
2021/12/17 08:17:18;;;;;;;11.55;4.15;;;5.90;99.90;;;;;;5011560;28;20026;-50
2021/12/17 08:25:14;;;;;;;9.82;3.17;;;6.00;99.90;;;;;;5012551;28;20065;-44
2021/12/17 08:30:22;;;;;;;14.63;4.30;;;6.00;99.90;;;;;;5012450;28;20021;-44
2021/12/17 08:32:49;;;;;;;14.77;4.75;;;6.00;99.90;;;;;;5011597;28;20067;-48
2021/12/17 08:35:15;;;;;;;19.40;4.30;;;6.00;99.90;;;;;;5012408;28;20525;-45
2021/12/17 08:37:40;;;;;;;14.55;3.90;;;6.00;99.90;;;;;;5012753;28;20079;-43
2021/12/17 08:40:07;;;;;;;12.38;3.63;;;6.10;99.90;;;;;;5012600;28;20112;-50
2021/12/17 08:42:33;;;;;;;15.70;3.63;;;6.10;99.90;;;;;;5012632;28;20037;-47
2021/12/17 08:45:00;;;;;;;12.55;3.67;;;6.10;99.90;;;;;;5012223;28;20026;-46
2021/12/17 08:47:25;;;;;;;10.15;3.22;;;6.10;99.90;;;;;;5011465;28;20461;-47
2021/12/17 08:49:51;;;;;;;19.23;3.88;;;6.10;99.90;;;;;;5012375;28;20065;-46
2021/12/17 08:52:17;;;;;;;16.88;3.63;;;6.10;99.90;;;;;;5012609;28;20036;-45
2021/12/17 08:54:43;;;;;;;13.18;3.92;;;6.10;99.90;;;;;;5012356;28;20034;-46
2021/12/17 08:57:09;;;;;;;11.80;3.92;;;6.20;99.90;;;;;;5012418;28;20036;-45
2021/12/17 08:59:35;;;;;;;13.45;4.53;;;6.20;99.90;;;;;;5012433;28;20178;-47
2021/12/17 09:02:01;;;;;;;15.85;3.88;;;6.20;99.90;;;;;;5011247;28;20029;-47
2021/12/17 09:04:27;;;;;;;12.75;3.60;;;6.20;99.90;;;;;;5012226;28;20026;-46
2021/12/17 09:06:54;;;;;;;13.55;3.33;;;6.30;99.90;;;;;;5012519;28;20021;-48
2021/12/17 09:09:22;;;;;;;12.43;3.53;;;6.30;99.90;;;;;;5012236;28;20018;-47
2021/12/17 09:11:47;;;;;;;12.18;3.25;;;6.30;99.90;;;;;;5012472;28;20033;-45
2021/12/17 09:14:13;;;;;;;10.98;3.35;;;6.40;99.90;;;;;;5012353;28;20034;-47
2021/12/17 09:16:39;;;;;;;13.52;4.18;;;6.40;99.90;;;;;;5011333;28;20022;-47
2021/12/17 09:19:07;;;;;;;13.40;3.28;;;6.40;99.90;;;;;;5012251;28;20030;-48
2021/12/17 09:21:32;;;;;;;12.25;2.67;;;6.40;99.90;;;;;;5012298;28;20457;-44
2021/12/17 09:23:58;;;;;;;15.60;2.90;;;6.40;99.90;;;;;;5012209;28;20045;-43
2021/12/17 09:26:24;;;;;;;8.07;2.35;;;6.50;99.90;;;;;;5011998;28;20034;-45
2021/12/17 09:28:50;;;;;;;8.75;2.22;;;6.50;99.90;;;;;;5012187;28;20022;-52
2021/12/17 09:31:16;;;;;;;11.70;3.53;;;6.50;99.90;;;;;;5012069;28;20026;-46
2021/12/17 09:33:45;;;;;;;8.02;2.97;;;6.50;99.90;;;;;;5011006;28;20492;-43
2021/12/17 09:36:11;;;;;;;7.95;3.00;;;6.50;99.90;;;;;;5012202;28;20037;-45
2021/12/17 09:38:36;;;;;;;9.32;3.15;;;6.50;99.90;;;;;;5012089;28;20038;-46
2021/12/17 09:41:02;;;;;;;15.40;4.07;;;6.50;99.90;;;;;;5011731;28;20041;-47
2021/12/17 09:43:35;;;;;;;9.23;2.60;;;6.50;99.90;;;;;;5011967;28;20288;-48
2021/12/17 09:46:01;;;;;;;7.78;2.70;;;6.50;99.90;;;;;;4995285;28;20037;-50
2021/12/17 09:48:27;;;;;;;11.55;3.17;;;6.60;99.90;;;;;;5014366;28;20026;-46
2021/12/17 09:50:53;;;;;;;12.32;3.50;;;6.60;99.90;;;;;;5015365;28;20065;-45
2021/12/17 09:53:19;;;;;;;8.18;2.60;;;6.60;99.90;;;;;;5015484;28;20037;-45
2021/12/17 09:55:45;;;;;;;13.57;4.30;;;6.60;99.90;;;;;;5015191;28;20109;-45
2021/12/17 09:58:11;;;;;;;10.57;3.65;;;6.70;99.90;;;;;;5015311;28;20523;-43
2021/12/17 10:00:37;;;;;;;8.82;2.67;;;6.70;99.90;;;;;;5015371;28;20117;-49
2021/12/17 10:03:05;;;;;;;11.20;3.22;;;6.70;99.90;;;;;;5013934;28;20110;-45
2021/12/17 10:05:34;;;;;;;7.50;3.05;;;6.70;99.90;;;;;;5015289;28;20113;-49
2021/12/17 10:08:03;;;;;;;10.40;2.83;;;6.70;99.90;;;;;;5015296;28;20022;-48
2021/12/17 10:10:33;;;;;;;12.18;3.03;;;6.80;99.90;;;;;;5014787;28;20037;-43
2021/12/17 10:13:19;;;;;;;16.55;3.17;;;6.80;99.90;;;;;;5015216;28;20574;-47
2021/12/17 10:15:47;;;;;;;3.95;1.60;;;6.80;99.90;;;;;;5015102;28;20026;-45
2021/12/17 10:18:14;;;;;;;10.32;2.88;;;6.90;99.90;;;;;;5013757;28;20030;-47
2021/12/17 10:20:42;;;;;;;7.90;3.08;;;6.80;99.90;;;;;;5014856;28;20270;-49
2021/12/17 10:23:11;;;;;;;5.88;2.60;;;6.90;99.90;;;;;;5014794;28;20030;-48
2021/12/17 10:25:41;;;;;;;7.72;2.70;;;6.90;99.90;;;;;;5014820;28;20186;-47
2021/12/17 10:28:07;;;;;;;6.53;2.85;;;6.90;99.90;;;;;;5014732;28;20408;-45
2021/12/17 10:30:39;;;;;;;8.70;2.40;;;6.90;99.90;;;;;;5014684;28;20493;-46
2021/12/17 10:33:07;;;;;;;5.10;2.25;;;7.00;99.90;;;;;;5013352;28;20093;-45
2021/12/17 10:35:38;;;;;;;10.85;3.03;;;7.00;99.90;;;;;;5014587;28;20037;-44
2021/12/17 10:38:08;;;;;;;9.48;2.67;;;7.00;99.90;;;;;;4997356;28;20462;-46
2021/12/17 10:41:03;;;;;;;9.13;2.35;;;7.00;99.90;;;;;;5014562;28;20053;-43
2021/12/17 10:43:37;;;;;;;5.25;1.88;;;7.00;99.90;;;;;;5014197;28;20116;-49
2021/12/17 10:46:23;;;;;;;8.43;2.05;;;7.00;99.90;;;;;;5014593;28;20018;-47
2021/12/17 10:48:54;;;;;;;4.18;1.77;;;6.90;99.90;;;;;;5013336;28;20064;-46
2021/12/17 10:54:03;;;;;;;6.25;1.83;;;6.90;99.90;;;;;;5014551;28;20037;-47
2021/12/17 10:56:34;;;;;;;9.82;2.15;;;7.00;99.90;;;;;;5014284;28;20077;-50
2021/12/17 10:59:15;;;;;;;4.03;1.38;;;7.10;99.90;;;;;;5014376;28;20037;-45
2021/12/17 11:01:47;;;;;;;5.35;2.03;;;7.10;99.90;;;;;;5012955;28;20153;-51
2021/12/17 11:04:28;;;;;;;9.63;1.92;;;7.10;99.90;;;;;;5014137;28;20022;-49
2021/12/17 11:06:58;;;;;;;6.22;2.10;;;7.00;99.90;;;;;;5014159;28;20018;-48
2021/12/17 11:09:40;;;;;;;10.23;2.67;;;7.10;99.90;;;;;;4996308;28;20018;-49
2021/12/17 11:12:17;;;;;;;8.50;2.70;;;7.10;99.90;;;;;;5013929;28;20048;-45
2021/12/17 11:14:45;;;;;;;5.60;2.13;;;7.00;99.90;;;;;;5014104;28;20030;-47
2021/12/17 11:17:12;;;;;;;5.03;1.55;;;7.10;99.90;;;;;;4995248;28;20389;-50
2021/12/17 11:19:39;;;;;;;8.15;2.15;;;7.10;99.90;;;;;;5013710;28;20065;-47
2021/12/17 11:22:05;;;;;;;7.18;2.03;;;7.00;99.90;;;;;;5013841;28;20120;-49
2021/12/17 11:24:34;;;;;;;4.75;2.03;;;7.00;99.90;;;;;;5013729;28;20581;-49
2021/12/17 11:27:01;;;;;;;7.85;1.80;;;7.10;99.90;;;;;;5013749;28;20036;-45
2021/12/17 11:29:27;;;;;;;5.15;1.88;;;7.10;99.90;;;;;;5013539;28;20061;-48
2021/12/17 11:31:53;;;;;;;7.80;2.17;;;7.00;99.90;;;;;;5012316;28;20103;-49
2021/12/17 11:34:19;;;;;;;5.40;1.55;;;7.00;99.90;;;;;;5013607;28;20026;-48
2021/12/17 11:36:46;;;;;;;10.32;2.70;;;7.00;99.90;;;;;;5013659;28;20026;-48
2021/12/17 11:39:28;;;;;;;6.93;1.75;;;7.00;99.90;;;;;;5013520;28;20418;-45
2021/12/17 11:42:29;;;;;;;6.93;1.75;;;7.00;99.90;;;;;;5013212;28;20385;-48
2021/12/17 11:47:46;;;;;;;4.72;1.90;;;7.10;99.90;;;;;;5011455;28;20053;-53
2021/12/17 11:50:17;;;;;;;7.53;2.17;;;7.10;99.90;;;;;;4994053;28;20509;-48
2021/12/17 11:52:48;;;;;;;9.63;2.03;;;7.10;99.90;;;;;;5013236;28;20470;-47
2021/12/17 11:55:33;;;;;;;4.97;1.95;;;7.20;99.90;;;;;;5013035;28;20034;-50
2021/12/17 11:58:03;;;;;;;6.90;1.63;;;7.20;99.90;;;;;;5013198;28;20026;-48
2021/12/17 12:00:50;;;;;;;10.93;2.03;;;7.30;99.90;;;;;;5012757;28;20374;-48
2021/12/17 12:03:17;;;;;;;;;;;7.30;99.90;;;;;;5012445;28;20030;-48
2021/12/17 12:05:46;;;;;;;3.75;1.48;;;7.20;99.90;;;;;;5013042;28;20012;-44
2021/12/17 12:08:44;;;;;;;6.18;1.92;;;7.30;99.90;;;;;;5012846;28;20380;-46
2021/12/17 12:11:22;;;;;;;5.15;2.05;;;7.30;99.90;;;;;;5012859;28;20057;-45
2021/12/17 12:13:52;;;;;;;10.32;2.17;;;7.30;99.90;;;;;;5012838;28;20041;-45
2021/12/17 12:16:27;;;;;;;4.72;1.50;;;7.30;99.90;;;;;;5012763;28;20029;-45
2021/12/17 12:19:07;;;;;;;7.13;2.15;;;7.30;99.90;;;;;;5012621;28;20508;-49
2021/12/17 12:21:34;;;;;;;9.93;2.55;;;7.40;99.90;;;;;;5012723;28;20033;-45
2021/12/17 12:24:12;;;;;;;8.30;1.73;;;7.40;99.90;;;;;;4995020;28;20152;-48
2021/12/17 12:26:44;;;;;;;4.82;1.60;;;7.40;99.90;;;;;;5012658;28;20022;-48
2021/12/17 12:29:17;;;;;;;9.32;1.70;;;7.40;99.90;;;;;;5012711;28;20022;-47
2021/12/17 12:31:50;;;;;;;7.40;1.92;;;7.40;99.90;;;;;;5011646;28;20470;-47
2021/12/17 12:34:31;;;;;;;5.88;2.28;;;7.30;99.90;;;;;;4994975;28;20033;-49
2021/12/17 12:37:03;;;;;;;5.40;1.60;;;7.30;99.90;;;;;;5012539;28;20056;-50
2021/12/17 12:40:03;;;;;;;6.35;2.40;;;7.30;99.90;;;;;;5012521;28;20026;-51
2021/12/17 12:42:35;;;;;;;5.45;2.05;;;7.30;99.90;;;;;;5012422;28;20037;-48
2021/12/17 12:45:03;;;;;;;6.13;2.00;;;7.20;99.90;;;;;;5012423;28;20497;-52
2021/12/17 12:47:31;;;;;;;6.95;2.15;;;7.20;99.90;;;;;;5011557;28;20041;-50
2021/12/17 12:50:07;;;;;;;3.13;1.50;;;7.20;99.90;;;;;;5012449;28;20133;-51
2021/12/17 12:52:32;;;;;;;;;;;7.20;99.90;;;;;;5012853;28;20026;-48
2021/12/17 12:55:40;;;;;;;5.17;1.60;;;7.20;99.90;;;;;;5012648;28;19906;-48
2021/12/17 12:58:08;;;;;;;;;;;7.20;99.90;;;;;;4914399;29;20036;-47
2021/12/17 13:00:56;;;;;;;9.75;1.65;;;7.20;99.90;;;;;;4993180;28;19991;-49
2021/12/17 13:03:28;;;;;;;7.13;1.58;;;7.30;99.90;;;;;;5011350;28;20022;-51
2021/12/17 13:05:55;;;;;;;8.85;1.83;;;7.30;99.90;;;;;;5012458;28;20030;-49
2021/12/17 13:08:23;;;;;;;7.55;1.45;;;7.30;99.90;;;;;;5012259;28;20028;-52
2021/12/17 13:10:59;;;;;;;7.10;1.70;;;7.30;99.90;;;;;;5012379;28;20469;-49
2021/12/17 13:13:37;;;;;;;5.82;1.65;;;7.20;99.90;;;;;;5012660;28;20041;-52
2021/12/17 13:16:13;;;;;;;6.88;1.90;;;7.20;99.90;;;;;;4994389;28;20030;-51
2021/12/17 13:21:42;;;;;;;5.63;1.90;;;7.20;99.90;;;;;;5013795;28;20386;-53
2021/12/17 13:24:18;;;;;;;4.00;1.63;;;7.20;99.90;;;;;;5015849;28;20083;-49
2021/12/17 13:26:47;;;;;;;1.97;1.10;;;7.10;99.90;;;;;;5016004;28;20025;-50
2021/12/17 13:29:33;;;;;;;5.50;1.95;;;7.10;99.90;;;;;;5016008;28;20292;-47
2021/12/17 13:32:20;;;;;;;5.65;1.58;;;7.20;99.90;;;;;;5014845;28;20048;-48
2021/12/17 13:34:48;;;;;;;6.25;2.25;;;7.10;99.90;;;;;;4997992;28;20034;-48
2021/12/17 13:37:20;;;;;;;6.55;1.58;;;7.20;99.90;;;;;;5015731;28;20112;-47
2021/12/17 13:39:49;;;;;;;5.03;1.60;;;7.20;99.90;;;;;;5015719;28;20114;-49
2021/12/17 13:42:16;;;;;;;6.35;1.90;;;7.10;99.90;;;;;;5015909;28;20037;-50
2021/12/17 13:44:51;;;;;;;6.40;1.67;;;7.10;99.90;;;;;;5015471;28;20026;-52
2021/12/17 13:47:19;;;;;;;6.10;1.75;;;7.10;99.90;;;;;;5014346;28;20029;-52
2021/12/17 13:49:51;;;;;;;5.75;2.30;;;7.10;99.90;;;;;;5015475;28;20125;-45
2021/12/17 13:52:20;;;;;;;6.38;1.50;;;7.00;99.90;;;;;;5015509;28;20377;-51
2021/12/17 13:54:47;;;;;;;7.38;1.60;;;7.00;99.90;;;;;;5015580;28;20034;-49
2021/12/17 13:57:16;;;;;;;5.45;1.45;;;7.00;99.90;;;;;;5015393;28;20105;-48
2021/12/17 13:59:43;;;;;;;3.47;1.50;;;7.00;99.90;;;;;;5015396;28;20024;-47
2021/12/17 14:02:13;;;;;;;5.15;1.60;;;7.00;99.90;;;;;;5014277;28;20038;-52
2021/12/17 14:04:40;;;;;;;6.20;1.50;;;7.00;99.90;;;;;;4995590;28;20053;-50
2021/12/17 14:07:10;;;;;;;3.78;1.58;;;7.00;99.90;;;;;;4995604;28;20097;-46
2021/12/17 14:09:36;;;;;;;7.45;1.40;;;6.90;99.90;;;;;;4995624;28;20030;-47
2021/12/17 14:12:10;;;;;;;7.53;1.30;;;6.90;99.90;;;;;;4995621;28;20069;-49
2021/12/17 14:14:36;;;;;;;4.22;1.20;;;6.90;99.90;;;;;;5001632;28;20018;-44
2021/12/17 14:17:05;;;;;;;7.80;1.90;;;6.90;99.90;;;;;;5013579;28;20037;-46
2021/12/17 14:19:40;;;;;;;4.97;1.30;;;7.00;99.90;;;;;;5014842;28;20461;-48
2021/12/17 14:22:27;;;;;;;9.15;1.70;;;6.90;99.90;;;;;;5014962;28;20026;-50
2021/12/17 14:24:56;;;;;;;6.90;1.58;;;6.90;99.90;;;;;;5014528;28;20022;-48
2021/12/17 14:27:22;;;;;;;6.28;1.90;;;7.00;99.90;;;;;;5014694;28;20026;-48
2021/12/17 14:30:02;;;;;;;4.93;1.80;;;6.90;99.90;;;;;;5014602;28;20026;-45
2021/12/17 14:32:27;;;;;;;8.68;1.50;;;6.90;99.90;;;;;;5013215;28;20461;-47
2021/12/17 14:34:53;;;;;;;3.13;1.77;;;6.90;99.90;;;;;;5014613;28;20033;-50
2021/12/17 14:37:18;;;;;;;3.15;1.13;;;6.90;99.90;;;;;;5014371;28;20022;-46
2021/12/17 14:39:47;;;;;;;7.63;2.47;;;6.80;99.90;;;;;;5014366;28;20129;-45
2021/12/17 14:42:28;;;;;;;9.23;2.03;;;6.90;99.90;;;;;;5014530;28;20018;-50
2021/12/17 14:45:00;;;;;;;5.03;1.23;;;6.80;99.90;;;;;;5029297;28;20065;-49
2021/12/17 14:47:32;;;;;;;3.83;1.55;;;6.80;99.90;;;;;;5016142;28;20076;-45
2021/12/17 15:05:51;;;;;;;8.07;1.80;;;6.80;99.90;;;;;;5013903;28;20037;-45
2021/12/17 15:08:18;;;;;;;6.35;2.08;;;6.80;99.90;;;;;;5014009;28;20028;-53
2021/12/17 15:10:45;;;;;;;7.78;1.73;;;6.80;99.90;;;;;;5013621;28;20030;-47
2021/12/17 15:13:11;;;;;;;4.85;1.48;;;6.80;99.90;;;;;;5013924;28;20022;-47
2021/12/17 15:15:39;;;;;;;10.45;1.75;;;6.80;99.90;;;;;;5013766;28;20516;-53
2021/12/17 15:18:14;;;;;;;6.00;1.75;;;6.80;99.90;;;;;;5012862;28;20040;-45
2021/12/17 15:20:41;;;;;;;6.13;1.27;;;6.80;99.90;;;;;;5007433;28;20105;-47
2021/12/17 15:23:06;;;;;;;8.65;1.90;;;6.80;99.90;;;;;;5003948;28;20034;-49
2021/12/17 15:25:32;;;;;;;7.20;1.40;;;6.80;99.90;;;;;;4990090;28;20034;-50
2021/12/17 15:27:59;;;;;;;6.65;1.70;;;6.70;99.90;;;;;;5011596;28;20026;-51
2021/12/17 15:30:31;;;;;;;4.80;1.60;;;6.70;99.90;;;;;;5011823;28;20018;-51
2021/12/17 15:32:58;;;;;;;4.22;1.70;;;6.80;99.90;;;;;;5010645;28;20026;-47
2021/12/17 15:35:26;;;;;;;6.22;1.92;;;6.80;99.90;;;;;;5011724;28;20034;-48
2021/12/17 15:37:53;;;;;;;8.57;1.83;;;6.80;99.90;;;;;;5006082;28;20026;-49
2021/12/17 15:40:20;;;;;;;9.80;2.90;;;6.70;99.90;;;;;;5011770;28;20025;-48
2021/12/17 15:42:45;;;;;;;9.18;2.60;;;6.70;99.90;;;;;;5011422;28;20497;-44
2021/12/17 15:45:11;;;;;;;7.85;2.25;;;6.70;99.90;;;;;;5010801;28;20029;-50
2021/12/17 15:47:38;;;;;;;8.18;3.08;;;6.70;99.90;;;;;;5010526;28;20064;-53
2021/12/17 15:50:05;;;;;;;5.18;2.00;;;6.60;99.90;;;;;;5011277;28;20054;-47
2021/12/17 15:52:33;;;;;;;9.27;2.05;;;6.60;99.90;;;;;;4993821;28;20109;-49
2021/12/17 15:54:59;;;;;;;7.50;2.42;;;6.60;99.90;;;;;;5003116;28;20022;-51
2021/12/17 15:57:24;;;;;;;7.35;2.47;;;6.60;99.90;;;;;;5008178;28;20029;-54
2021/12/17 15:59:50;;;;;;;5.40;2.25;;;6.70;99.90;;;;;;5011493;28;20030;-52
2021/12/17 16:02:16;;;;;;;3.95;2.00;;;6.70;99.90;;;;;;5010356;28;20026;-48
2021/12/17 16:04:44;;;;;;;11.88;2.72;;;6.70;99.90;;;;;;5011160;28;20532;-48
2021/12/17 16:07:11;;;;;;;4.68;2.13;;;6.70;99.90;;;;;;5011210;28;20484;-49